Hong Kong International Airport
VHHH : now visible

Airfield :











YOU CAN JOIN US ON...

 
LOGIN :

Register | Disclaimer

   EN    FR    IT 

 









Legend :    VFR   Marginal VFR   IFR   Intensive IFR   Very Intensive IFR
Visi :
Ceiling :
>= 8 km
>= 3000ft
5 to 8 km
1000 to 3000 ft
1500m to 5 km
500 to 1000 ft
800 to 1500m
200 to 500 ft
< 800m
< 200 ft
Symbols :   Thunderstorms  Fog  Heavy snow  Heavy precipitations  Wind > 20 kt







- Airport Elevation : 28 ft
- IATA code : HKG


VHHH - Hong Kong International

CURRENT METAR :
  • 211930Z 36012KT CAVOK 28/12 Q1010 NOSIG

EXPIRED METARs :
  • 211900Z 36014KT CAVOK 28/12 Q1010 NOSIG
  • 211830Z 36011KT CAVOK 28/15 Q1010 NOSIG
  • 211800Z 01010KT CAVOK 28/16 Q1010 NOSIG
  • 211730Z 04007KT 350V060 CAVOK 28/16 Q1010 NOSIG
  • 211700Z 03010KT CAVOK 29/17 Q1010 NOSIG

TAF TAF VHHH
Valid from the 21 at 18:00 until the 23 at 00:00 UTC


211700Z 2118/2224 34015KT CAVOK TX32/2206Z TN26/2122Z TN26/2222Z
TEMPO 2118/2124 04010KT
No reported NOTAMs for that airfield.



MET'MAP, your aeronautical weather chart ! - Copyright ORBIFLY December 2007 - Disclaimer

ORBIFLY MET'MAP TEAM :

Programming & Development : Alexandra Zaïnal
Concept & Development : Baudouin d'Aumeries
Co-Development & Prog : Marc-Olivier Méhu
Technical & hardware support : Manuel Goepfert

Contact : metmap@orbifly.com




SOURCES & CREDITS :

   NOAA       Earth
Advisory